Time;durP1;ratioP1;P1;durP2;ratioP2;P2;SDS_P1;SDS_P2;PMS_P1;PMS_P2;Temp;Humidity;BMP_temperature;BMP_pressure;BME280_temperature;BME280_humidity;BME280_pressure;Samples;Min_cycle;Max_cycle;Signal;HPM_P1;HPM_P2
2022/01/22 00:01:54;;;;;;;6.07;5.47;;;;;;;;;;5057852;28;20223;-83
2022/01/22 00:04:21;;;;;;;6.90;5.27;;;;;;;;;;5058126;28;20209;-82
2022/01/22 00:06:54;;;;;;;6.23;5.33;;;;;;;;;;5057507;28;20245;-83
2022/01/22 00:09:25;;;;;;;6.23;5.10;;;;;;;;;;5058427;28;20210;-83
2022/01/22 00:11:53;;;;;;;6.37;5.57;;;;;;;;;;5061107;28;20217;-84
2022/01/22 00:14:26;;;;;;;6.30;5.30;;;;;;;;;;5056627;28;20200;-82
2022/01/22 00:17:01;;;;;;;5.70;5.10;;;;;;;;;;5055875;28;20217;-83
2022/01/22 00:19:29;;;;;;;7.30;5.83;;;;;;;;;;5056327;28;20208;-83
2022/01/22 00:22:03;;;;;;;5.80;5.20;;;;;;;;;;5056993;28;20221;-82
2022/01/22 00:24:38;;;;;;;7.93;5.67;;;;;;;;;;5056549;28;20243;-83
2022/01/22 00:27:13;;;;;;;6.23;5.63;;;;;;;;;;5055712;28;20220;-82
2022/01/22 00:29:42;;;;;;;8.03;5.97;;;;;;;;;;5050018;28;20251;-82
2022/01/22 00:32:10;;;;;;;7.53;5.80;;;;;;;;;;5056199;28;20233;-83
2022/01/22 00:34:37;;;;;;;6.87;6.00;;;;;;;;;;5055360;28;20229;-82
2022/01/22 00:37:07;;;;;;;7.53;6.10;;;;;;;;;;5054998;28;20204;-83
2022/01/22 00:39:34;;;;;;;6.60;5.90;;;;;;;;;;5055401;28;20205;-83
2022/01/22 00:42:02;;;;;;;7.33;6.07;;;;;;;;;;5055520;28;20231;-83
2022/01/22 00:44:31;;;;;;;6.50;5.67;;;;;;;;;;5059338;28;20213;-83
2022/01/22 00:47:00;;;;;;;7.40;6.20;;;;;;;;;;5064167;28;20232;-84
2022/01/22 00:49:28;;;;;;;6.70;6.00;;;;;;;;;;5064331;28;20206;-84
2022/01/22 00:52:04;;;;;;;6.20;5.60;;;;;;;;;;5067768;28;20321;-83
2022/01/22 00:54:35;;;;;;;7.50;5.60;;;;;;;;;;5071061;28;20208;-83
2022/01/22 00:57:03;;;;;;;5.80;5.30;;;;;;;;;;5071907;28;20209;-83
2022/01/22 00:59:30;;;;;;;7.97;5.90;;;;;;;;;;5071137;28;20201;-83
2022/01/22 01:01:57;;;;;;;8.33;6.63;;;;;;;;;;5074355;22;20233;-90
2022/01/22 01:04:27;;;;;;;8.60;6.20;;;;;;;;;;5040765;28;20279;-87
2022/01/22 01:06:55;;;;;;;9.37;6.07;;;;;;;;;;5025393;28;20257;-87
2022/01/22 01:09:22;;;;;;;6.97;6.07;;;;;;;;;;5045293;28;20241;-87
2022/01/22 01:11:58;;;;;;;7.37;5.83;;;;;;;;;;5041938;28;20271;-87
2022/01/22 01:14:31;;;;;;;7.50;6.33;;;;;;;;;;5037021;28;20202;-89
2022/01/22 01:17:10;;;;;;;8.53;6.43;;;;;;;;;;5032616;28;20283;-89
2022/01/22 01:33:39;;;;;;;10.93;7.17;;;;;;;;;;5033086;28;20252;-87
2022/01/22 01:36:07;;;;;;;11.20;7.37;;;;;;;;;;5039933;28;20209;-87
2022/01/22 01:38:40;;;;;;;10.07;7.40;;;;;;;;;;5043954;28;20194;-88
2022/01/22 01:41:17;;;;;;;10.50;7.23;;;;;;;;;;5039232;28;20214;-88
2022/01/22 01:43:46;;;;;;;10.43;7.53;;;;;;;;;;5027266;28;20229;-89
2022/01/22 01:46:13;;;;;;;9.33;8.20;;;;;;;;;;5032961;28;20210;-87
2022/01/22 01:48:42;;;;;;;11.33;7.90;;;;;;;;;;5046279;28;20200;-87
2022/01/22 01:51:10;;;;;;;9.43;7.43;;;;;;;;;;5038030;28;20213;-87
2022/01/22 01:53:51;;;;;;;9.27;7.83;;;;;;;;;;5039470;28;20217;-87
2022/01/22 01:59:04;;;;;;;8.10;7.27;;;;;;;;;;5030954;28;20208;-87
2022/01/22 02:01:32;;;;;;;9.37;7.23;;;;;;;;;;5033239;28;20236;-87
2022/01/22 02:03:59;;;;;;;9.67;7.60;;;;;;;;;;5050461;28;20304;-88
2022/01/22 02:06:26;;;;;;;11.53;7.07;;;;;;;;;;5052030;28;20204;-88
2022/01/22 02:08:54;;;;;;;11.03;7.87;;;;;;;;;;5050132;28;20201;-87
2022/01/22 02:11:24;;;;;;;9.63;8.20;;;;;;;;;;5046110;28;20205;-88
2022/01/22 02:14:04;;;;;;;12.37;8.20;;;;;;;;;;5051406;28;20236;-87
2022/01/22 02:24:52;;;;;;;9.70;7.90;;;;;;;;;;5043676;28;20204;-88
2022/01/22 02:27:19;;;;;;;11.40;8.17;;;;;;;;;;5032215;28;20332;-88
2022/01/22 02:29:50;;;;;;;10.33;8.57;;;;;;;;;;5044087;28;20256;-88
2022/01/22 02:32:47;;;;;;;13.13;8.53;;;;;;;;;;5032381;28;20226;-88
2022/01/22 02:35:22;;;;;;;13.00;8.90;;;;;;;;;;5043674;28;20271;-88
2022/01/22 02:37:57;;;;;;;12.27;8.93;;;;;;;;;;5038300;28;20717;-88
2022/01/22 02:40:27;;;;;;;13.17;9.67;;;;;;;;;;5026397;28;20213;-88
2022/01/22 02:42:54;;;;;;;11.87;9.20;;;;;;;;;;5032776;28;20279;-88
2022/01/22 02:45:23;;;;;;;11.30;8.97;;;;;;;;;;5038786;28;20225;-88
2022/01/22 02:47:50;;;;;;;12.07;9.00;;;;;;;;;;5037589;28;20226;-88
2022/01/22 02:50:19;;;;;;;11.07;9.00;;;;;;;;;;5046862;28;20231;-88
2022/01/22 02:52:47;;;;;;;11.20;9.37;;;;;;;;;;5039292;28;20214;-88
2022/01/22 02:55:16;;;;;;;10.87;8.43;;;;;;;;;;5045445;28;20251;-89
2022/01/22 02:57:45;;;;;;;12.17;9.33;;;;;;;;;;5042669;28;20202;-88
2022/01/22 03:00:15;;;;;;;13.30;9.63;;;;;;;;;;5032418;28;20289;-88
2022/01/22 03:02:43;;;;;;;12.40;8.97;;;;;;;;;;5031761;28;20234;-88
2022/01/22 03:05:11;;;;;;;9.70;8.07;;;;;;;;;;5032162;28;20212;-87
2022/01/22 03:07:40;;;;;;;12.17;9.27;;;;;;;;;;5034504;28;20221;-88
2022/01/22 03:10:09;;;;;;;11.27;9.00;;;;;;;;;;5055305;28;20213;-88
2022/01/22 03:12:53;;;;;;;14.17;9.90;;;;;;;;;;5054177;28;20221;-88
2022/01/22 03:18:09;;;;;;;13.43;9.30;;;;;;;;;;5036611;28;20193;-88
2022/01/22 03:21:03;;;;;;;11.90;9.20;;;;;;;;;;5055021;28;20197;-87
2022/01/22 03:29:05;;;;;;;12.70;9.20;;;;;;;;;;5030327;28;20296;-88
2022/01/22 03:31:33;;;;;;;12.97;8.90;;;;;;;;;;5038801;28;20221;-88
2022/01/22 03:34:01;;;;;;;12.60;9.60;;;;;;;;;;5036137;28;20202;-88
2022/01/22 03:36:32;;;;;;;12.80;9.90;;;;;;;;;;5035307;28;20233;-87
2022/01/22 03:38:59;;;;;;;12.13;9.53;;;;;;;;;;5034595;28;20205;-88
2022/01/22 03:41:27;;;;;;;13.07;9.13;;;;;;;;;;5044658;28;20209;-88
2022/01/22 03:43:54;;;;;;;12.70;9.10;;;;;;;;;;5035404;28;20263;-88
2022/01/22 03:46:23;;;;;;;11.37;9.03;;;;;;;;;;5036489;28;20197;-88
2022/01/22 03:48:50;;;;;;;12.50;9.47;;;;;;;;;;5034693;28;20252;-88
2022/01/22 03:51:18;;;;;;;13.67;9.60;;;;;;;;;;5051421;28;20205;-87
2022/01/22 03:53:45;;;;;;;12.97;8.50;;;;;;;;;;5037702;28;20289;-88
2022/01/22 03:56:13;;;;;;;14.80;9.00;;;;;;;;;;5036240;28;20233;-88
2022/01/22 03:58:43;;;;;;;13.07;10.23;;;;;;;;;;5032932;28;20209;-88
2022/01/22 04:01:39;;;;;;;12.73;9.00;;;;;;;;;;5034040;28;20194;-88
2022/01/22 04:04:10;;;;;;;12.70;9.70;;;;;;;;;;5034304;28;20275;-88
2022/01/22 04:09:20;;;;;;;13.10;9.33;;;;;;;;;;5021939;28;20212;-88
2022/01/22 04:11:48;;;;;;;14.23;9.67;;;;;;;;;;5033746;28;20315;-89
2022/01/22 04:14:19;;;;;;;16.40;9.93;;;;;;;;;;5040798;28;20206;-89
2022/01/22 04:17:00;;;;;;;9.77;8.77;;;;;;;;;;5033604;28;20225;-88
2022/01/22 04:24:58;;;;;;;13.47;10.00;;;;;;;;;;5050196;28;20205;-89
2022/01/22 04:27:27;;;;;;;14.80;10.83;;;;;;;;;;5034326;28;20317;-89
2022/01/22 04:29:57;;;;;;;12.40;9.43;;;;;;;;;;5026754;28;20267;-88
2022/01/22 04:32:24;;;;;;;14.80;10.63;;;;;;;;;;5047837;28;20610;-89
2022/01/22 04:34:53;;;;;;;13.37;10.17;;;;;;;;;;5039800;28;20208;-89
2022/01/22 04:37:21;;;;;;;13.53;10.50;;;;;;;;;;5048107;28;20283;-89
2022/01/22 04:39:49;;;;;;;14.30;11.30;;;;;;;;;;5048332;28;20270;-89
2022/01/22 04:42:16;;;;;;;12.07;10.77;;;;;;;;;;5044364;28;20214;-89
2022/01/22 04:44:53;;;;;;;13.03;10.20;;;;;;;;;;5033548;28;20206;-89
2022/01/22 04:47:27;;;;;;;13.03;10.33;;;;;;;;;;5033792;28;20229;-90
2022/01/22 04:52:43;;;;;;;14.50;10.63;;;;;;;;;;5041611;28;20304;-89
2022/01/22 04:55:10;;;;;;;13.13;10.10;;;;;;;;;;5046989;28;20215;-89
2022/01/22 04:57:38;;;;;;;15.80;10.60;;;;;;;;;;5027698;28;20190;-89
2022/01/22 05:00:07;;;;;;;13.27;9.70;;;;;;;;;;5027737;28;20228;-89
2022/01/22 05:02:38;;;;;;;13.30;9.63;;;;;;;;;;5037787;28;20789;-89
2022/01/22 05:05:08;;;;;;;14.70;9.97;;;;;;;;;;5040532;28;20217;-89
2022/01/22 05:07:35;;;;;;;11.27;9.70;;;;;;;;;;5043944;28;20216;-89
2022/01/22 05:10:02;;;;;;;13.33;9.67;;;;;;;;;;5034075;28;20197;-89
2022/01/22 05:12:30;;;;;;;13.30;9.70;;;;;;;;;;5036604;28;20311;-89
2022/01/22 05:14:57;;;;;;;14.73;10.50;;;;;;;;;;5033768;28;20213;-89
2022/01/22 05:17:24;;;;;;;13.53;10.43;;;;;;;;;;5032387;28;20216;-90
2022/01/22 05:19:57;;;;;;;13.83;10.37;;;;;;;;;;5053244;28;20209;-89
2022/01/22 05:22:44;;;;;;;14.83;10.43;;;;;;;;;;5048107;28;20316;-89
2022/01/22 05:25:19;;;;;;;16.07;10.33;;;;;;;;;;5041806;28;20236;-89
2022/01/22 05:28:04;;;;;;;14.80;10.63;;;;;;;;;;5041795;28;20263;-89
2022/01/22 05:33:31;;;;;;;16.33;10.47;;;;;;;;;;5035064;28;20217;-89
2022/01/22 05:38:45;;;;;;;13.40;9.70;;;;;;;;;;5043088;28;20201;-89
2022/01/22 05:41:13;;;;;;;11.50;10.13;;;;;;;;;;5043412;28;20216;-89
2022/01/22 05:43:40;;;;;;;13.63;10.60;;;;;;;;;;5047589;28;20218;-89
2022/01/22 05:46:07;;;;;;;16.93;10.20;;;;;;;;;;5049044;28;20193;-89
2022/01/22 05:48:35;;;;;;;12.53;9.87;;;;;;;;;;5047924;28;20299;-89
2022/01/22 05:51:04;;;;;;;13.93;10.57;;;;;;;;;;5055647;28;20205;-89
2022/01/22 05:53:45;;;;;;;11.43;9.27;;;;;;;;;;5055345;28;20225;-89
2022/01/22 06:01:40;;;;;;;13.57;10.03;;;;;;;;;;5055195;28;20189;-89
2022/01/22 06:04:07;;;;;;;15.47;10.30;;;;;;;;;;5068869;28;20201;-89
2022/01/22 06:06:35;;;;;;;11.37;9.87;;;;;;;;;;5056011;28;20186;-89
2022/01/22 06:09:07;;;;;;;13.73;9.73;;;;;;;;;;5074386;28;20236;-89
2022/01/22 06:11:50;;;;;;;13.83;10.80;;;;;;;;;;5057106;28;20186;-90
2022/01/22 06:14:18;;;;;;;14.13;10.83;;;;;;;;;;5059062;28;20192;-89
2022/01/22 06:16:45;;;;;;;15.10;10.57;;;;;;;;;;5058549;28;20205;-88
2022/01/22 06:19:12;;;;;;;11.97;9.83;;;;;;;;;;5041545;28;20194;-89
2022/01/22 06:21:40;;;;;;;15.03;10.67;;;;;;;;;;5038418;28;20233;-89
2022/01/22 06:24:08;;;;;;;13.73;11.30;;;;;;;;;;5037460;28;20240;-89
2022/01/22 06:26:37;;;;;;;14.40;10.30;;;;;;;;;;5035118;28;20255;-89
2022/01/22 06:29:05;;;;;;;14.57;10.80;;;;;;;;;;5036097;28;20233;-89
2022/01/22 06:31:32;;;;;;;14.03;10.70;;;;;;;;;;5036604;28;20233;-89
2022/01/22 06:34:00;;;;;;;13.07;11.57;;;;;;;;;;5035322;28;20206;-90
2022/01/22 06:36:27;;;;;;;13.93;10.73;;;;;;;;;;5041023;28;20235;-89
2022/01/22 06:38:58;;;;;;;13.50;10.23;;;;;;;;;;5035581;28;20213;-90
2022/01/22 06:44:17;;;;;;;14.47;10.23;;;;;;;;;;5041444;28;20203;-90
2022/01/22 06:46:45;;;;;;;14.27;10.57;;;;;;;;;;5038313;28;20225;-89
2022/01/22 06:49:13;;;;;;;12.43;9.77;;;;;;;;;;5041000;28;20226;-89
2022/01/22 06:51:41;;;;;;;14.57;11.30;;;;;;;;;;5056818;28;20205;-89
2022/01/22 06:54:10;;;;;;;13.80;10.33;;;;;;;;;;5055084;28;20205;-89
2022/01/22 06:56:38;;;;;;;13.37;10.07;;;;;;;;;;5051222;28;20205;-89
2022/01/22 06:59:10;;;;;;;11.83;10.30;;;;;;;;;;5046622;28;20206;-89
2022/01/22 07:01:40;;;;;;;13.67;10.23;;;;;;;;;;5053443;28;20236;-91
2022/01/22 07:04:07;;;;;;;13.00;10.10;;;;;;;;;;5087729;22;20237;-82
2022/01/22 07:06:34;;;;;;;16.60;10.23;;;;;;;;;;5055997;28;20358;-85
2022/01/22 07:09:01;;;;;;;12.77;9.87;;;;;;;;;;5060674;28;20438;-84
2022/01/22 07:11:31;;;;;;;10.60;9.50;;;;;;;;;;5067683;28;20205;-85
2022/01/22 07:13:58;;;;;;;13.90;10.20;;;;;;;;;;5056471;28;20229;-86
2022/01/22 07:16:25;;;;;;;16.53;11.43;;;;;;;;;;5058971;28;20205;-85
2022/01/22 07:18:59;;;;;;;13.97;10.20;;;;;;;;;;5055749;28;20224;-85
2022/01/22 07:21:29;;;;;;;12.90;10.30;;;;;;;;;;5056820;28;20216;-86
2022/01/22 07:24:22;;;;;;;12.33;9.67;;;;;;;;;;5058548;28;20220;-85
2022/01/22 07:26:50;;;;;;;13.00;9.63;;;;;;;;;;5062207;28;20197;-83
2022/01/22 07:29:17;;;;;;;14.33;10.33;;;;;;;;;;5059554;28;20265;-85
2022/01/22 07:31:44;;;;;;;14.97;10.23;;;;;;;;;;5061208;28;20208;-83
2022/01/22 07:34:13;;;;;;;14.03;9.90;;;;;;;;;;5060875;28;20428;-84
2022/01/22 07:36:41;;;;;;;11.63;9.57;;;;;;;;;;5056153;28;20198;-85
2022/01/22 07:39:08;;;;;;;11.90;9.93;;;;;;;;;;5053183;28;20286;-85
2022/01/22 07:41:36;;;;;;;14.97;10.77;;;;;;;;;;5053249;28;20201;-84
2022/01/22 07:44:03;;;;;;;17.33;10.97;;;;;;;;;;5056570;28;20263;-82
2022/01/22 07:46:31;;;;;;;18.27;12.97;;;;;;;;;;5055802;28;20198;-83
2022/01/22 07:48:58;;;;;;;15.33;12.47;;;;;;;;;;5056591;28;20217;-84
2022/01/22 07:51:27;;;;;;;14.47;11.83;;;;;;;;;;5060431;28;20205;-83
2022/01/22 07:53:54;;;;;;;14.63;11.23;;;;;;;;;;5061447;28;20229;-84
2022/01/22 07:56:21;;;;;;;13.00;9.30;;;;;;;;;;5063225;28;20197;-83
2022/01/22 07:58:49;;;;;;;14.13;11.00;;;;;;;;;;5061783;28;20216;-81
2022/01/22 08:01:16;;;;;;;11.63;9.87;;;;;;;;;;5060639;28;20274;-83
2022/01/22 08:03:43;;;;;;;13.50;11.50;;;;;;;;;;5064990;28;20260;-83
2022/01/22 08:06:10;;;;;;;13.03;9.37;;;;;;;;;;5059818;28;20201;-82
2022/01/22 08:08:39;;;;;;;11.33;10.13;;;;;;;;;;5055333;28;20271;-83
2022/01/22 08:11:06;;;;;;;11.27;9.50;;;;;;;;;;5057599;28;20250;-84
2022/01/22 08:13:33;;;;;;;11.87;8.77;;;;;;;;;;5058371;28;20267;-84
2022/01/22 08:16:01;;;;;;;9.60;8.60;;;;;;;;;;5056681;28;20224;-83
2022/01/22 08:18:28;;;;;;;12.57;9.00;;;;;;;;;;5063458;28;20200;-84
2022/01/22 08:20:55;;;;;;;10.40;9.03;;;;;;;;;;5062048;28;20251;-84
2022/01/22 08:23:23;;;;;;;12.30;8.77;;;;;;;;;;5059967;28;20279;-83
2022/01/22 08:25:52;;;;;;;11.30;9.00;;;;;;;;;;5069370;28;20258;-83
2022/01/22 08:31:17;;;;;;;9.73;8.37;;;;;;;;;;5058882;28;20234;-84
2022/01/22 08:36:29;;;;;;;10.10;8.50;;;;;;;;;;5057824;28;20255;-79
2022/01/22 08:38:56;;;;;;;9.87;8.60;;;;;;;;;;5056068;28;20329;-83
2022/01/22 08:41:24;;;;;;;10.40;8.20;;;;;;;;;;5056015;28;20197;-82
2022/01/22 08:43:53;;;;;;;10.60;8.90;;;;;;;;;;5058957;28;20286;-83
2022/01/22 08:46:21;;;;;;;11.07;8.70;;;;;;;;;;5061195;28;20220;-84
2022/01/22 08:48:48;;;;;;;9.70;7.97;;;;;;;;;;5061920;28;20256;-84
2022/01/22 08:51:15;;;;;;;10.53;8.27;;;;;;;;;;5056681;28;20244;-83
2022/01/22 08:53:46;;;;;;;10.20;7.73;;;;;;;;;;5055842;28;20225;-83
2022/01/22 08:56:13;;;;;;;9.30;8.10;;;;;;;;;;5056519;28;20237;-83
2022/01/22 08:58:42;;;;;;;11.27;8.40;;;;;;;;;;5054502;28;20209;-83
2022/01/22 09:01:09;;;;;;;10.73;9.27;;;;;;;;;;5048951;28;20224;-80
2022/01/22 09:03:36;;;;;;;8.60;7.63;;;;;;;;;;5059853;28;20268;-82
2022/01/22 09:06:04;;;;;;;9.63;8.63;;;;;;;;;;5064317;28;20205;-81
2022/01/22 09:08:32;;;;;;;11.20;8.83;;;;;;;;;;5059537;28;20287;-85
2022/01/22 09:10:59;;;;;;;12.70;8.60;;;;;;;;;;5061746;28;20227;-82
2022/01/22 09:13:27;;;;;;;10.83;8.20;;;;;;;;;;5062116;28;20221;-86
2022/01/22 09:15:56;;;;;;;8.53;7.60;;;;;;;;;;5057243;28;20197;-79
2022/01/22 09:18:24;;;;;;;11.57;8.07;;;;;;;;;;5056276;28;20251;-83
2022/01/22 09:21:04;;;;;;;9.83;7.83;;;;;;;;;;5060267;28;20272;-83
2022/01/22 09:23:32;;;;;;;11.50;8.00;;;;;;;;;;5059600;28;20221;-81
2022/01/22 09:26:00;;;;;;;10.90;8.03;;;;;;;;;;5056064;28;20231;-83
2022/01/22 09:28:30;;;;;;;11.83;7.93;;;;;;;;;;5055896;28;20201;-80
2022/01/22 09:30:58;;;;;;;12.60;7.73;;;;;;;;;;5052088;28;20198;-82
2022/01/22 09:33:26;;;;;;;10.73;7.70;;;;;;;;;;5060509;28;20252;-83
2022/01/22 09:35:53;;;;;;;11.67;8.20;;;;;;;;;;5058580;28;20235;-82
2022/01/22 09:38:20;;;;;;;9.57;8.17;;;;;;;;;;5059653;28;20232;-83
2022/01/22 09:40:53;;;;;;;9.73;8.27;;;;;;;;;;5055611;28;20197;-87
2022/01/22 09:43:21;;;;;;;9.73;7.80;;;;;;;;;;5055752;28;20260;-82
2022/01/22 09:45:50;;;;;;;9.20;7.90;;;;;;;;;;5058523;28;20197;-84
2022/01/22 09:48:19;;;;;;;9.93;8.53;;;;;;;;;;5056951;28;20204;-84
2022/01/22 09:50:47;;;;;;;9.80;8.03;;;;;;;;;;5056643;28;20221;-83
2022/01/22 09:53:14;;;;;;;9.50;7.57;;;;;;;;;;5057708;28;20217;-83
2022/01/22 09:55:41;;;;;;;8.47;7.40;;;;;;;;;;5057855;28;20229;-84
2022/01/22 09:58:09;;;;;;;11.67;7.83;;;;;;;;;;5057082;28;20267;-84
2022/01/22 10:00:36;;;;;;;9.63;7.67;;;;;;;;;;5056798;28;20209;-83
2022/01/22 10:03:04;;;;;;;12.80;8.47;;;;;;;;;;5058464;28;20323;-84
2022/01/22 10:05:37;;;;;;;11.17;8.83;;;;;;;;;;5069408;28;20275;-83
2022/01/22 10:08:27;;;;;;;10.07;8.70;;;;;;;;;;5066409;28;20205;-84
2022/01/22 10:10:58;;;;;;;12.73;8.87;;;;;;;;;;5062465;28;20225;-84
2022/01/22 10:13:38;;;;;;;12.77;9.00;;;;;;;;;;5060937;28;20225;-85
2022/01/22 10:16:20;;;;;;;11.50;9.00;;;;;;;;;;5052253;28;20268;-82
2022/01/22 10:18:48;;;;;;;11.03;8.37;;;;;;;;;;5054420;28;20287;-82
2022/01/22 10:21:19;;;;;;;12.17;9.90;;;;;;;;;;5061921;28;20243;-82
2022/01/22 10:23:48;;;;;;;11.20;8.53;;;;;;;;;;5055900;28;20248;-83
2022/01/22 10:26:19;;;;;;;9.60;8.03;;;;;;;;;;5052305;28;20259;-83
2022/01/22 10:28:50;;;;;;;10.70;8.30;;;;;;;;;;5055812;28;20208;-83
2022/01/22 10:31:22;;;;;;;11.07;9.30;;;;;;;;;;5052338;28;20201;-81
2022/01/22 10:34:09;;;;;;;10.53;8.47;;;;;;;;;;5064236;28;20255;-83
2022/01/22 10:36:38;;;;;;;11.90;9.10;;;;;;;;;;5060756;28;20235;-81
2022/01/22 10:39:08;;;;;;;9.87;8.17;;;;;;;;;;5059210;28;20193;-83
2022/01/22 10:41:36;;;;;;;12.70;9.80;;;;;;;;;;5059756;28;20209;-84
2022/01/22 10:44:05;;;;;;;11.77;8.53;;;;;;;;;;5059508;28;20272;-80
2022/01/22 10:46:44;;;;;;;11.27;9.10;;;;;;;;;;5059917;28;20197;-81
2022/01/22 10:49:13;;;;;;;11.10;8.90;;;;;;;;;;5059029;28;20213;-82
2022/01/22 10:51:53;;;;;;;10.03;8.17;;;;;;;;;;5059397;28;20209;-83
2022/01/22 10:54:22;;;;;;;9.60;8.27;;;;;;;;;;5059787;28;20217;-84
2022/01/22 10:56:50;;;;;;;11.23;8.53;;;;;;;;;;5065713;28;20205;-82
2022/01/22 10:59:18;;;;;;;10.27;8.33;;;;;;;;;;5058696;28;20216;-84
2022/01/22 11:01:50;;;;;;;8.77;7.87;;;;;;;;;;5061137;28;20213;-83
2022/01/22 11:04:19;;;;;;;9.73;7.60;;;;;;;;;;5061397;28;20233;-81
2022/01/22 11:06:50;;;;;;;8.37;7.30;;;;;;;;;;5070418;28;20197;-81
2022/01/22 11:09:21;;;;;;;8.10;7.27;;;;;;;;;;5067324;28;20221;-82
2022/01/22 11:11:51;;;;;;;10.00;7.87;;;;;;;;;;5066245;28;20237;-80
2022/01/22 11:14:18;;;;;;;8.73;7.53;;;;;;;;;;5060128;28;20247;-82
2022/01/22 11:16:47;;;;;;;9.27;7.53;;;;;;;;;;5058477;28;20202;-82
2022/01/22 11:19:16;;;;;;;7.87;6.73;;;;;;;;;;5064633;28;20224;-83
2022/01/22 11:21:47;;;;;;;6.70;6.00;;;;;;;;;;5056769;28;20235;-82
2022/01/22 11:24:14;;;;;;;6.67;5.97;;;;;;;;;;5061315;28;20221;-81
2022/01/22 11:26:47;;;;;;;7.47;6.03;;;;;;;;;;5056793;28;20248;-82
2022/01/22 11:29:16;;;;;;;7.53;5.63;;;;;;;;;;5059013;28;20236;-81
2022/01/22 11:31:45;;;;;;;6.50;5.90;;;;;;;;;;5056184;28;20301;-82
2022/01/22 11:34:13;;;;;;;8.00;5.57;;;;;;;;;;5061907;28;20248;-82
2022/01/22 11:36:44;;;;;;;6.70;6.00;;;;;;;;;;5060498;28;20212;-81
2022/01/22 11:39:18;;;;;;;6.17;5.57;;;;;;;;;;5065953;28;20201;-82
2022/01/22 11:41:54;;;;;;;8.10;6.57;;;;;;;;;;5062312;28;20209;-84
2022/01/22 11:44:33;;;;;;;7.57;6.03;;;;;;;;;;5063361;28;20292;-85
2022/01/22 11:47:30;;;;;;;;;;;;;;;;;;;;;
2022/01/22 11:50:09;;;;;;;6.90;5.57;;;;;;;;;;5069209;28;20225;-83
2022/01/22 11:52:38;;;;;;;7.30;6.00;;;;;;;;;;5064954;28;20224;-83
2022/01/22 11:55:09;;;;;;;8.50;6.30;;;;;;;;;;5058218;28;20232;-82
2022/01/22 11:57:38;;;;;;;7.07;5.60;;;;;;;;;;5065749;28;20232;-82
2022/01/22 12:00:16;;;;;;;7.17;6.13;;;;;;;;;;5068806;28;20205;-82
2022/01/22 12:02:43;;;;;;;6.60;5.37;;;;;;;;;;5070911;28;20229;-83
2022/01/22 12:05:10;;;;;;;7.73;6.20;;;;;;;;;;5071010;28;20228;-84
2022/01/22 12:07:38;;;;;;;7.53;5.90;;;;;;;;;;5070411;28;20213;-83
2022/01/22 12:16:04;;;;;;;8.77;5.77;;;;;;;;;;5067957;28;20212;-82
2022/01/22 12:18:33;;;;;;;7.53;5.80;;;;;;;;;;5070019;28;20201;-83
2022/01/22 12:23:54;;;;;;;7.70;6.07;;;;;;;;;;5070181;28;20219;-81
2022/01/22 12:26:59;;;;;;;7.53;6.27;;;;;;;;;;5064958;28;20209;-81
2022/01/22 12:29:40;;;;;;;7.53;5.67;;;;;;;;;;5068922;28;20205;-83
2022/01/22 12:32:16;;;;;;;7.63;5.80;;;;;;;;;;5069159;28;20243;-85
2022/01/22 12:34:53;;;;;;;7.73;5.67;;;;;;;;;;5074009;28;20264;-84
2022/01/22 12:37:21;;;;;;;6.10;5.50;;;;;;;;;;5074496;28;20200;-85
2022/01/22 12:39:52;;;;;;;6.53;5.47;;;;;;;;;;5072754;28;20213;-83
2022/01/22 12:42:27;;;;;;;6.20;5.60;;;;;;;;;;5062107;28;20205;-85
2022/01/22 12:44:58;;;;;;;7.57;5.60;;;;;;;;;;5061862;28;20200;-83
2022/01/22 12:47:28;;;;;;;5.53;4.93;;;;;;;;;;5060824;28;20209;-83
2022/01/22 12:50:03;;;;;;;7.27;6.10;;;;;;;;;;5060581;28;20247;-83
2022/01/22 12:52:33;;;;;;;8.13;5.90;;;;;;;;;;5060105;28;20223;-83
2022/01/22 12:55:01;;;;;;;6.60;5.23;;;;;;;;;;5060609;28;20209;-82
2022/01/22 12:57:30;;;;;;;10.50;6.33;;;;;;;;;;5058830;28;20225;-83
2022/01/22 13:00:05;;;;;;;6.73;6.03;;;;;;;;;;5060178;28;20300;-80
2022/01/22 13:02:41;;;;;;;7.73;6.23;;;;;;;;;;5058180;28;20240;-82
2022/01/22 13:05:09;;;;;;;9.03;6.90;;;;;;;;;;5120506;22;20236;-90
2022/01/22 13:07:41;;;;;;;7.60;6.43;;;;;;;;;;5054810;28;20213;-90
2022/01/22 13:10:16;;;;;;;7.33;6.33;;;;;;;;;;5060726;28;20228;-90
2022/01/22 13:12:53;;;;;;;8.03;6.40;;;;;;;;;;5056654;28;20203;-90
2022/01/22 13:15:21;;;;;;;6.90;6.20;;;;;;;;;;5062301;28;20228;-90
2022/01/22 13:18:03;;;;;;;7.53;6.60;;;;;;;;;;5053271;28;20251;-90
2022/01/22 13:20:41;;;;;;;7.43;6.67;;;;;;;;;;5073873;28;20266;-90
2022/01/22 13:23:19;;;;;;;9.83;7.27;;;;;;;;;;5064343;28;20257;-91
2022/01/22 13:25:48;;;;;;;8.07;6.87;;;;;;;;;;5055069;28;20208;-91
2022/01/22 13:28:18;;;;;;;9.17;7.47;;;;;;;;;;5062841;28;20201;-90
2022/01/22 13:30:54;;;;;;;7.90;7.10;;;;;;;;;;5063505;28;20236;-90
2022/01/22 13:33:30;;;;;;;10.73;7.27;;;;;;;;;;5054469;28;20250;-90
2022/01/22 13:36:10;;;;;;;10.17;7.57;;;;;;;;;;5067021;28;20235;-90
2022/01/22 13:39:01;;;;;;;10.40;7.77;;;;;;;;;;5058943;28;20212;-90
2022/01/22 13:49:55;;;;;;;14.23;9.13;;;;;;;;;;5073361;28;20203;-89
2022/01/22 13:52:44;;;;;;;11.90;8.40;;;;;;;;;;5058350;28;20213;-90
2022/01/22 13:55:15;;;;;;;11.50;8.27;;;;;;;;;;5051629;28;20252;-86
2022/01/22 13:57:47;;;;;;;8.97;7.93;;;;;;;;;;5053130;28;20201;-87
2022/01/22 14:00:24;;;;;;;11.50;8.70;;;;;;;;;;5051609;28;20232;-86
2022/01/22 14:03:05;;;;;;;10.03;9.03;;;;;;;;;;5053378;28;20207;-87
2022/01/22 14:05:34;;;;;;;9.73;8.40;;;;;;;;;;5054214;28;20213;-85
2022/01/22 14:08:03;;;;;;;9.73;7.80;;;;;;;;;;5052736;28;20243;-86
2022/01/22 14:10:31;;;;;;;9.57;8.57;;;;;;;;;;5064439;28;20208;-86
2022/01/22 14:13:05;;;;;;;9.80;8.57;;;;;;;;;;5054971;28;20262;-87
2022/01/22 14:15:34;;;;;;;9.80;8.33;;;;;;;;;;5046183;28;20205;-87
2022/01/22 14:18:13;;;;;;;11.40;8.90;;;;;;;;;;5052243;28;20219;-88
2022/01/22 14:20:49;;;;;;;11.53;8.83;;;;;;;;;;5054754;28;20190;-87
2022/01/22 14:23:24;;;;;;;12.77;9.00;;;;;;;;;;5054925;28;20205;-88
2022/01/22 14:25:56;;;;;;;9.47;8.53;;;;;;;;;;5069216;28;20204;-87
2022/01/22 14:31:32;;;;;;;14.37;9.80;;;;;;;;;;5054063;28;20212;-87
2022/01/22 14:34:02;;;;;;;10.97;8.17;;;;;;;;;;5062828;28;20236;-88
2022/01/22 14:36:32;;;;;;;12.30;8.43;;;;;;;;;;5055085;28;20205;-87
2022/01/22 14:39:12;;;;;;;10.07;8.47;;;;;;;;;;5064963;28;20205;-90
2022/01/22 14:44:35;;;;;;;11.87;9.03;;;;;;;;;;5044340;28;20232;-86
2022/01/22 14:47:05;;;;;;;11.57;9.93;;;;;;;;;;5055444;28;20205;-86
2022/01/22 14:49:39;;;;;;;15.23;10.03;;;;;;;;;;5053275;28;20211;-86
2022/01/22 14:52:09;;;;;;;13.87;10.17;;;;;;;;;;5066816;28;20297;-85
2022/01/22 14:54:38;;;;;;;13.23;9.77;;;;;;;;;;5053553;28;20237;-86
2022/01/22 14:59:53;;;;;;;13.43;9.87;;;;;;;;;;5034444;28;20202;-87
2022/01/22 15:02:21;;;;;;;13.47;10.13;;;;;;;;;;5047729;28;20260;-87
2022/01/22 15:04:48;;;;;;;13.63;10.53;;;;;;;;;;5046272;28;20307;-87
2022/01/22 15:07:27;;;;;;;14.63;10.10;;;;;;;;;;5045429;28;20198;-87
2022/01/22 15:09:55;;;;;;;14.07;10.90;;;;;;;;;;5051996;28;20197;-87
2022/01/22 15:12:24;;;;;;;13.43;10.53;;;;;;;;;;5054113;28;20224;-87
2022/01/22 15:15:01;;;;;;;13.10;9.73;;;;;;;;;;5050360;28;20221;-87
2022/01/22 15:17:42;;;;;;;14.97;10.67;;;;;;;;;;5047148;28;20204;-87
2022/01/22 15:20:15;;;;;;;11.60;9.77;;;;;;;;;;5047136;28;20198;-87
2022/01/22 15:22:44;;;;;;;13.10;9.37;;;;;;;;;;5048505;28;20229;-87
2022/01/22 15:25:14;;;;;;;14.17;10.07;;;;;;;;;;5046671;28;20224;-87
2022/01/22 15:27:41;;;;;;;11.80;10.33;;;;;;;;;;5046083;28;20252;-87
2022/01/22 15:30:20;;;;;;;10.70;9.10;;;;;;;;;;5052259;28;20201;-87
2022/01/22 15:32:57;;;;;;;13.57;10.33;;;;;;;;;;5040322;28;20292;-85
2022/01/22 15:35:26;;;;;;;12.20;9.20;;;;;;;;;;5050852;28;20225;-87
2022/01/22 15:37:57;;;;;;;12.20;9.33;;;;;;;;;;5063166;28;20197;-87
2022/01/22 15:40:25;;;;;;;11.87;9.20;;;;;;;;;;5075081;28;20228;-87
2022/01/22 15:43:02;;;;;;;12.43;10.20;;;;;;;;;;5060320;28;20201;-86
2022/01/22 15:45:40;;;;;;;;;;;;;;;;;;;;;
2022/01/22 15:48:14;;;;;;;16.77;11.00;;;;;;;;;;5054672;28;20215;-87
2022/01/22 15:50:43;;;;;;;13.27;10.53;;;;;;;;;;5067078;28;20229;-88
2022/01/22 15:53:12;;;;;;;14.67;11.67;;;;;;;;;;5058791;28;20205;-89
2022/01/22 15:55:42;;;;;;;14.37;11.27;;;;;;;;;;5061980;28;20198;-88
2022/01/22 15:58:10;;;;;;;17.03;12.20;;;;;;;;;;5073919;28;20254;-88
2022/01/22 16:00:39;;;;;;;15.20;11.83;;;;;;;;;;5055320;28;20201;-87
2022/01/22 16:03:08;;;;;;;15.07;11.13;;;;;;;;;;5054622;28;20205;-87
2022/01/22 16:05:35;;;;;;;15.73;11.63;;;;;;;;;;5066019;28;20212;-88
2022/01/22 16:08:03;;;;;;;14.70;11.60;;;;;;;;;;5047602;28;20209;-88
2022/01/22 16:10:32;;;;;;;15.03;10.77;;;;;;;;;;5051270;28;20236;-88
2022/01/22 16:13:02;;;;;;;13.77;11.27;;;;;;;;;;5054233;28;20209;-88
2022/01/22 16:15:36;;;;;;;13.80;11.37;;;;;;;;;;5049909;28;20221;-87
2022/01/22 16:18:09;;;;;;;15.47;10.93;;;;;;;;;;5053975;28;20292;-88
2022/01/22 16:20:36;;;;;;;15.00;10.63;;;;;;;;;;5074330;28;20268;-88
2022/01/22 16:23:06;;;;;;;13.80;11.03;;;;;;;;;;5060556;28;20227;-88
2022/01/22 16:25:40;;;;;;;13.30;11.17;;;;;;;;;;5064795;28;20204;-88